createdAt,value
2019-01-03T00:01:45.035Z,1.77
2019-01-03T00:04:40.960Z,1.90
2019-01-03T00:07:43.912Z,1.97
2019-01-03T00:10:36.854Z,1.80
2019-01-03T00:13:24.761Z,1.70
2019-01-03T00:16:14.639Z,2.30
2019-01-03T00:19:10.392Z,2.00
2019-01-03T00:22:06.064Z,1.50
2019-01-03T00:25:08.268Z,1.37
2019-01-03T00:28:07.381Z,1.20
2019-01-03T00:30:57.561Z,1.43
2019-01-03T00:34:05.888Z,1.73
2019-01-03T00:36:54.711Z,1.27
2019-01-03T00:39:44.567Z,1.30
2019-01-03T00:42:27.857Z,1.30
2019-01-03T00:45:08.722Z,1.60
2019-01-03T00:48:10.473Z,2.20
2019-01-03T00:51:03.435Z,2.00
2019-01-03T00:54:08.272Z,1.70
2019-01-03T00:56:56.767Z,1.60
2019-01-03T00:59:45.275Z,1.50
2019-01-03T01:02:35.136Z,1.20
2019-01-03T01:05:34.257Z,1.47
2019-01-03T01:08:23.051Z,1.60
2019-01-03T01:11:28.244Z,1.50
2019-01-03T01:14:18.179Z,1.57
2019-01-03T01:17:06.694Z,1.10
2019-01-03T01:19:55.537Z,1.10
2019-01-03T01:22:45.515Z,1.20
2019-01-03T01:25:38.119Z,1.40
2019-01-03T01:28:26.531Z,1.83
2019-01-03T01:31:16.411Z,1.20
2019-01-03T01:34:09.318Z,1.37
2019-01-03T01:37:05.293Z,1.20
2019-01-03T01:40:04.379Z,1.53
2019-01-03T01:42:53.247Z,1.50
2019-01-03T01:45:42.128Z,1.50
2019-01-03T01:48:30.571Z,1.30
2019-01-03T01:51:19.044Z,1.30
2019-01-03T01:54:19.722Z,1.93
2019-01-03T01:57:09.591Z,1.57
2019-01-03T01:59:57.910Z,1.80
2019-01-03T02:02:47.742Z,2.23
2019-01-03T02:05:49.610Z,2.07
2019-01-03T02:08:38.554Z,1.90
2019-01-03T02:11:34.792Z,1.70
2019-01-03T02:14:27.437Z,1.83
2019-01-03T02:17:23.355Z,2.00
2019-01-03T02:20:10.031Z,1.73
2019-01-03T02:22:59.864Z,1.80
2019-01-03T02:25:59.138Z,1.83
2019-01-03T02:28:47.513Z,1.67
2019-01-03T02:31:40.364Z,1.80
2019-01-03T02:34:30.190Z,1.60
2019-01-03T02:37:35.277Z,1.80
2019-01-03T02:40:31.516Z,2.13
2019-01-03T02:43:39.756Z,1.80
2019-01-03T02:46:35.418Z,2.03
2019-01-03T02:49:23.914Z,2.00
2019-01-03T02:52:22.861Z,1.77
2019-01-03T02:55:18.201Z,2.30
2019-01-03T02:58:11.031Z,1.93
2019-01-03T03:01:05.432Z,1.97
2019-01-03T03:03:54.068Z,1.77
2019-01-03T03:06:42.977Z,2.10
2019-01-03T03:09:32.793Z,1.70
2019-01-03T03:12:25.664Z,1.77
2019-01-03T03:15:14.321Z,1.73
2019-01-03T03:18:04.188Z,1.77
2019-01-03T03:21:06.082Z,1.70
2019-01-03T03:23:55.921Z,1.93
2019-01-03T03:27:00.997Z,1.80
2019-01-03T03:30:00.064Z,2.30
2019-01-03T03:32:48.475Z,1.70
2019-01-03T03:35:37.123Z,1.97
2019-01-03T03:38:42.413Z,2.50
2019-01-03T03:41:29.220Z,2.00
2019-01-03T03:44:13.981Z,2.23
2019-01-03T03:47:22.489Z,2.10
2019-01-03T03:50:18.542Z,1.67
2019-01-03T03:53:11.203Z,1.50
2019-01-03T03:56:19.266Z,1.43
2019-01-03T03:59:26.688Z,1.60
2019-01-03T04:02:15.132Z,1.50
2019-01-03T04:05:13.955Z,2.40
2019-01-03T04:08:09.645Z,1.73
2019-01-03T04:11:08.632Z,1.53
2019-01-03T04:13:58.473Z,1.50
2019-01-03T04:16:43.265Z,1.57
2019-01-03T04:19:51.482Z,1.30
2019-01-03T04:22:41.353Z,1.60
2019-01-03T04:25:40.321Z,1.20
2019-01-03T04:28:48.674Z,1.30
2019-01-03T04:31:53.984Z,1.50
2019-01-03T04:34:48.696Z,1.37
2019-01-03T04:37:37.407Z,1.40
2019-01-03T04:40:36.534Z,1.30
2019-01-03T04:43:38.425Z,1.47
2019-01-03T04:46:28.301Z,1.60
2019-01-03T04:49:21.080Z,1.53
2019-01-03T04:52:13.984Z,1.80
2019-01-03T04:55:03.081Z,1.60
2019-01-03T04:57:58.949Z,1.97
2019-01-03T05:00:54.941Z,2.30
2019-01-03T05:03:43.719Z,1.90
2019-01-03T05:06:43.807Z,2.00
2019-01-03T05:09:33.654Z,2.73
2019-01-03T05:12:29.315Z,3.07
2019-01-03T05:15:10.058Z,2.23
2019-01-03T05:17:58.538Z,3.43
2019-01-03T05:20:46.563Z,2.77
2019-01-03T05:23:36.498Z,2.77
2019-01-03T05:26:32.183Z,3.13
2019-01-03T05:29:37.293Z,2.67
2019-01-03T05:32:36.107Z,3.20
2019-01-03T05:35:42.022Z,4.27
2019-01-03T05:38:41.835Z,3.63
2019-01-03T05:41:43.867Z,2.57
2019-01-03T05:44:29.605Z,3.63
2019-01-03T05:47:28.487Z,3.10
2019-01-03T05:50:18.323Z,3.00
2019-01-03T05:53:06.946Z,3.40
2019-01-03T05:55:46.177Z,3.00
2019-01-03T05:58:54.657Z,3.30
2019-01-03T06:01:47.332Z,4.30
2019-01-03T06:04:35.777Z,3.70
2019-01-03T06:07:24.622Z,4.20
2019-01-03T06:10:23.747Z,4.90
2019-01-03T06:13:12.537Z,3.47
2019-01-03T06:16:08.910Z,3.53
2019-01-03T06:18:57.297Z,4.13
2019-01-03T06:21:53.136Z,3.67
2019-01-03T06:24:42.966Z,4.37
2019-01-03T06:27:31.345Z,3.80
2019-01-03T06:30:21.195Z,3.57
2019-01-03T06:33:07.284Z,4.03
2019-01-03T06:36:03.175Z,3.60
2019-01-03T06:38:51.965Z,3.70
2019-01-03T06:41:43.170Z,4.70
2019-01-03T06:44:29.708Z,4.57
2019-01-03T06:47:18.520Z,3.67
2019-01-03T06:50:07.367Z,4.67
2019-01-03T06:52:57.222Z,3.93
2019-01-03T06:55:56.320Z,3.87
2019-01-03T06:58:46.104Z,5.03
2019-01-03T07:01:33.806Z,3.77
2019-01-03T07:04:26.427Z,3.33
2019-01-03T07:07:18.706Z,3.87
2019-01-03T07:10:08.389Z,4.37
2019-01-03T07:13:11.373Z,6.80
2019-01-03T07:16:01.288Z,4.33
2019-01-03T07:19:06.515Z,4.10
2019-01-03T07:21:55.091Z,4.00
2019-01-03T07:24:51.209Z,4.57
2019-01-03T07:27:48.173Z,5.20
2019-01-03T07:30:56.118Z,5.53
2019-01-03T07:33:44.584Z,5.37
2019-01-03T07:36:33.400Z,5.30
2019-01-03T07:39:24.971Z,5.47
2019-01-03T07:42:18.068Z,5.43
2019-01-03T07:45:06.523Z,5.00
2019-01-03T07:48:00.889Z,6.00
2019-01-03T07:50:59.762Z,6.70
2019-01-03T07:53:48.597Z,7.77
2019-01-03T07:56:41.549Z,7.53
2019-01-03T07:59:31.480Z,6.60
2019-01-03T08:02:27.439Z,6.10
2019-01-03T08:05:16.145Z,6.97
2019-01-03T08:08:04.830Z,5.93
2019-01-03T08:11:03.882Z,6.87
2019-01-03T08:13:52.651Z,6.53
2019-01-03T08:16:51.650Z,6.33
2019-01-03T08:19:50.713Z,6.83
2019-01-03T08:22:40.561Z,7.53
2019-01-03T08:25:30.459Z,9.50
2019-01-03T08:28:35.550Z,5.70
2019-01-03T08:31:31.412Z,4.97
2019-01-03T08:34:21.494Z,3.90
2019-01-03T08:37:10.522Z,4.57
2019-01-03T08:39:59.268Z,4.17
2019-01-03T08:42:47.979Z,4.87
2019-01-03T08:45:50.377Z,4.90
2019-01-03T08:48:39.299Z,6.17
2019-01-03T08:51:28.282Z,6.03
2019-01-03T08:54:16.999Z,6.03
2019-01-03T08:57:08.152Z,6.73
2019-01-03T08:59:56.533Z,6.23
2019-01-03T09:02:47.436Z,5.27
2019-01-03T09:05:52.436Z,5.17
2019-01-03T09:08:41.138Z,5.37
2019-01-03T09:11:29.960Z,4.17
2019-01-03T09:14:32.132Z,3.50
2019-01-03T09:17:17.280Z,2.73
2019-01-03T09:20:05.794Z,2.90
2019-01-03T09:22:54.220Z,3.40
2019-01-03T09:25:42.959Z,3.30
2019-01-03T09:28:32.848Z,3.73
2019-01-03T09:31:22.660Z,3.33
2019-01-03T09:34:11.515Z,3.10
2019-01-03T09:36:51.966Z,3.67
2019-01-03T09:39:50.993Z,2.87
2019-01-03T09:42:55.987Z,3.57
2019-01-03T09:45:26.895Z,8.37
2019-01-03T09:47:57.865Z,4.07
2019-01-03T09:50:28.841Z,3.37
2019-01-03T09:52:59.792Z,3.80
2019-01-03T09:55:30.702Z,4.40
2019-01-03T09:58:01.683Z,2.80
2019-01-03T10:00:32.671Z,3.87
2019-01-03T10:03:03.662Z,2.73
2019-01-03T10:05:34.575Z,3.40
2019-01-03T10:08:05.523Z,4.10
2019-01-03T10:10:36.458Z,3.90
2019-01-03T10:13:07.388Z,3.40
2019-01-03T10:15:38.362Z,3.60
2019-01-03T10:18:09.353Z,3.67
2019-01-03T10:20:40.375Z,4.80
2019-01-03T10:23:11.317Z,5.43
2019-01-03T10:25:42.258Z,3.10
2019-01-03T10:28:13.205Z,4.20
2019-01-03T10:30:44.203Z,4.93
2019-01-03T10:33:15.154Z,4.77
2019-01-03T10:35:46.090Z,4.00
2019-01-03T10:38:20.970Z,3.63
2019-01-03T10:40:49.717Z,3.77
2019-01-03T10:43:20.635Z,3.73
2019-01-03T10:45:52.647Z,3.50
2019-01-03T10:48:23.678Z,4.20
2019-01-03T10:50:54.593Z,3.33
2019-01-03T10:53:25.589Z,3.23
2019-01-03T10:55:56.590Z,3.10
2019-01-03T10:58:27.559Z,3.50
2019-01-03T11:00:58.698Z,3.03
2019-01-03T11:03:29.622Z,3.63
2019-01-03T11:06:00.558Z,3.83
2019-01-03T11:08:31.575Z,3.17
2019-01-03T11:11:02.561Z,3.17
2019-01-03T11:13:33.492Z,3.97
2019-01-03T11:16:04.419Z,4.43
2019-01-03T11:18:35.421Z,2.77
2019-01-03T11:21:06.454Z,2.93
2019-01-03T11:23:37.559Z,3.80
2019-01-03T11:26:08.574Z,3.13
2019-01-03T11:28:39.515Z,3.60
2019-01-03T11:31:10.458Z,2.47
2019-01-03T11:33:41.485Z,3.30
2019-01-03T11:36:12.466Z,3.30
2019-01-03T11:38:43.385Z,4.13
2019-01-03T11:41:15.154Z,3.40
2019-01-03T11:43:46.571Z,3.70
2019-01-03T11:46:17.585Z,3.03
2019-01-03T11:48:48.801Z,3.10
2019-01-03T11:51:19.722Z,7.43
2019-01-03T11:53:50.648Z,2.77
2019-01-03T11:56:21.592Z,4.00
2019-01-03T11:58:52.528Z,4.30
2019-01-03T12:01:23.464Z,3.57
2019-01-03T12:03:54.470Z,2.90
2019-01-03T12:06:25.372Z,3.20
2019-01-03T12:08:56.329Z,3.70
2019-01-03T12:11:27.256Z,4.17
2019-01-03T12:13:58.183Z,4.13
2019-01-03T12:16:29.088Z,3.70
2019-01-03T12:19:00.009Z,4.40
2019-01-03T12:21:30.930Z,4.10
2019-01-03T12:24:01.848Z,4.03
2019-01-03T12:26:32.771Z,4.63
2019-01-03T12:29:03.688Z,3.47
2019-01-03T12:31:34.621Z,3.40
2019-01-03T12:34:05.562Z,3.53
2019-01-03T12:36:36.527Z,3.87
2019-01-03T12:39:07.957Z,3.63
2019-01-03T12:41:38.949Z,4.20
2019-01-03T12:44:09.887Z,3.60
2019-01-03T12:46:40.806Z,4.80
2019-01-03T12:49:11.741Z,3.50
2019-01-03T12:51:42.721Z,3.40
2019-01-03T12:54:13.748Z,3.60
2019-01-03T12:56:44.731Z,3.27
2019-01-03T12:59:15.663Z,5.90
2019-01-03T13:01:46.690Z,11.63
2019-01-03T13:04:17.642Z,4.47
2019-01-03T13:06:48.604Z,3.63
2019-01-03T13:09:19.842Z,3.47
2019-01-03T13:11:50.777Z,3.73
2019-01-03T13:14:21.721Z,4.60
2019-01-03T13:16:52.647Z,6.23
2019-01-03T13:19:23.565Z,3.40
2019-01-03T13:21:54.515Z,4.70
2019-01-03T13:24:25.438Z,3.17
2019-01-03T13:26:56.421Z,3.30
2019-01-03T13:29:27.396Z,3.60
2019-01-03T13:31:58.321Z,4.57
2019-01-03T13:34:29.319Z,4.10
2019-01-03T13:37:00.318Z,3.77
2019-01-03T13:39:31.361Z,3.67
2019-01-03T13:42:02.336Z,4.97
2019-01-03T13:44:33.282Z,3.27
2019-01-03T13:47:04.772Z,5.57
2019-01-03T13:49:35.699Z,4.80
2019-01-03T13:52:06.667Z,4.23
2019-01-03T13:54:37.601Z,5.57
2019-01-03T13:57:08.537Z,4.50
2019-01-03T13:59:39.448Z,4.93
2019-01-03T14:02:10.445Z,5.50
2019-01-03T14:04:42.334Z,4.60
2019-01-03T14:07:13.333Z,4.60
2019-01-03T14:09:44.283Z,8.27
2019-01-03T14:12:15.220Z,6.73
2019-01-03T14:14:46.198Z,5.77
2019-01-03T14:17:17.213Z,4.50
2019-01-03T14:19:48.123Z,3.67
2019-01-03T14:22:19.152Z,3.80
2019-01-03T14:24:50.132Z,3.80
2019-01-03T14:27:21.173Z,4.53
2019-01-03T14:29:52.159Z,5.10
2019-01-03T14:32:23.083Z,4.47
2019-01-03T14:34:54.074Z,4.30
2019-01-03T14:37:24.998Z,6.97
2019-01-03T14:39:55.930Z,6.97
2019-01-03T14:42:26.867Z,5.10
2019-01-03T14:44:57.802Z,5.20
2019-01-03T14:47:28.727Z,5.23
2019-01-03T14:49:59.694Z,10.00
2019-01-03T14:52:30.627Z,9.77
2019-01-03T14:55:01.561Z,8.77
2019-01-03T14:57:32.579Z,6.00
2019-01-03T15:00:03.657Z,7.00
2019-01-03T15:02:34.694Z,5.27
2019-01-03T15:05:05.644Z,6.80
2019-01-03T15:07:36.677Z,5.10
2019-01-03T15:10:08.355Z,3.73
2019-01-03T15:12:39.339Z,6.13
2019-01-03T15:15:10.253Z,6.73
2019-01-03T15:17:41.216Z,5.17
2019-01-03T15:20:12.691Z,4.90
2019-01-03T15:22:43.678Z,4.30
2019-01-03T15:25:14.675Z,4.80
2019-01-03T15:27:45.712Z,6.50
2019-01-03T15:30:16.649Z,7.83
2019-01-03T15:32:55.292Z,5.30
2019-01-03T15:35:26.246Z,5.37
2019-01-03T15:37:57.297Z,4.47
2019-01-03T15:40:28.237Z,3.87
2019-01-03T15:43:00.294Z,4.40
2019-01-03T15:45:31.329Z,4.90
2019-01-03T15:48:02.294Z,5.43
2019-01-03T15:50:34.380Z,5.10
2019-01-03T15:53:05.441Z,5.17
2019-01-03T15:55:36.497Z,5.03
2019-01-03T15:58:07.422Z,4.83
2019-01-03T16:00:38.408Z,6.70
2019-01-03T16:03:09.538Z,6.30
2019-01-03T16:05:40.633Z,6.63
2019-01-03T16:08:14.006Z,10.57
2019-01-03T16:10:45.118Z,9.07
2019-01-03T16:13:16.286Z,9.00
2019-01-03T16:15:47.281Z,5.23
2019-01-03T16:18:18.305Z,5.53
2019-01-03T16:20:49.287Z,4.90
2019-01-03T16:23:20.285Z,20.20
2019-01-03T16:25:51.300Z,9.60
2019-01-03T16:28:22.302Z,11.53
2019-01-03T16:30:53.214Z,5.50
2019-01-03T16:33:24.205Z,5.80
2019-01-03T16:35:55.129Z,5.93
2019-01-03T16:38:26.061Z,7.30
2019-01-03T16:40:57.007Z,7.27
2019-01-03T16:43:28.021Z,7.73
2019-01-03T16:45:59.032Z,7.30
2019-01-03T16:48:29.988Z,6.37
2019-01-03T16:51:00.911Z,9.33
2019-01-03T16:53:31.944Z,7.23
2019-01-03T16:56:02.905Z,7.53
2019-01-03T16:58:33.893Z,7.53
2019-01-03T17:01:04.848Z,5.70
2019-01-03T17:03:35.836Z,5.90
2019-01-03T17:06:12.456Z,6.03
2019-01-03T17:08:43.411Z,6.30
2019-01-03T17:11:14.401Z,5.87
2019-01-03T17:13:45.466Z,6.60
2019-01-03T17:16:16.526Z,5.40
2019-01-03T17:18:47.693Z,6.30
2019-01-03T17:21:18.724Z,8.33
2019-01-03T17:23:50.093Z,7.47
2019-01-03T17:26:21.094Z,7.83
2019-01-03T17:28:52.074Z,8.90
2019-01-03T17:31:23.151Z,6.23
2019-01-03T17:33:54.142Z,6.70
2019-01-03T17:36:25.170Z,5.93
2019-01-03T17:38:56.171Z,6.83
2019-01-03T17:41:27.111Z,6.37
2019-01-03T17:43:58.106Z,5.57
2019-01-03T17:46:29.302Z,6.60
2019-01-03T17:49:00.271Z,7.53
2019-01-03T17:51:31.373Z,5.40
2019-01-03T17:54:02.311Z,6.30
2019-01-03T17:56:33.281Z,6.87
2019-01-03T17:59:04.200Z,7.27
2019-01-03T18:01:35.127Z,6.20
2019-01-03T18:04:06.130Z,6.23
2019-01-03T18:06:37.049Z,5.70
2019-01-03T18:09:16.903Z,6.20
2019-01-03T18:11:48.995Z,5.70
2019-01-03T18:14:21.317Z,5.73
2019-01-03T18:16:52.293Z,5.63
2019-01-03T18:19:25.573Z,5.20
2019-01-03T18:21:56.976Z,6.57
2019-01-03T18:24:28.011Z,6.37
2019-01-03T18:26:58.927Z,8.23
2019-01-03T18:29:29.947Z,5.37
2019-01-03T18:32:01.047Z,6.43
2019-01-03T18:34:33.117Z,8.27
2019-01-03T18:37:04.109Z,6.70
2019-01-03T18:39:35.127Z,6.63
2019-01-03T18:42:06.275Z,6.70
2019-01-03T18:44:37.230Z,9.30
2019-01-03T18:47:08.235Z,7.67
2019-01-03T18:49:39.330Z,9.47
2019-01-03T18:52:10.419Z,12.00
2019-01-03T18:54:41.363Z,9.13
2019-01-03T18:57:12.348Z,6.80
2019-01-03T18:59:43.286Z,5.70
2019-01-03T19:02:14.330Z,7.10
2019-01-03T19:04:45.298Z,7.50
2019-01-03T19:07:16.478Z,11.27
2019-01-03T19:09:47.522Z,11.13
2019-01-03T19:12:18.759Z,11.10
2019-01-03T19:14:53.158Z,13.30
2019-01-03T19:17:24.229Z,15.57
2019-01-03T19:19:55.271Z,12.37
2019-01-03T19:22:26.479Z,14.00
2019-01-03T19:24:57.996Z,9.87
2019-01-03T19:27:28.993Z,10.23
2019-01-03T19:30:01.760Z,10.73
2019-01-03T19:32:32.808Z,12.67
2019-01-03T19:35:03.868Z,13.63
2019-01-03T19:37:35.238Z,10.00
2019-01-03T19:40:09.037Z,10.00
2019-01-03T19:42:40.210Z,7.23
2019-01-03T19:45:12.021Z,7.93
2019-01-03T19:47:43.485Z,9.63
2019-01-03T19:50:17.331Z,8.37
2019-01-03T19:52:48.303Z,8.57
2019-01-03T19:55:19.259Z,7.80
2019-01-03T19:57:50.226Z,6.97
2019-01-03T20:00:21.226Z,6.20
2019-01-03T20:02:52.172Z,6.87
2019-01-03T20:05:23.117Z,7.93
2019-01-03T20:07:54.116Z,7.20
2019-01-03T20:10:25.168Z,6.37
2019-01-03T20:12:56.256Z,6.20
2019-01-03T20:15:27.257Z,6.50
2019-01-03T20:17:58.542Z,5.80
2019-01-03T20:20:29.507Z,6.17
2019-01-03T20:23:00.535Z,6.37
2019-01-03T20:25:31.521Z,6.07
2019-01-03T20:28:02.557Z,6.03
2019-01-03T20:30:33.594Z,5.47
2019-01-03T20:33:04.636Z,5.77
2019-01-03T20:35:35.660Z,5.80
2019-01-03T20:38:06.726Z,5.73
2019-01-03T20:40:37.738Z,5.90
2019-01-03T20:43:08.711Z,5.80
2019-01-03T20:45:39.837Z,6.20
2019-01-03T20:48:10.785Z,5.77
2019-01-03T20:50:41.754Z,5.93
2019-01-03T20:53:12.744Z,5.73
2019-01-03T20:55:43.686Z,6.03
2019-01-03T20:58:14.770Z,5.90
2019-01-03T21:00:45.772Z,6.10
2019-01-03T21:03:18.057Z,6.47
2019-01-03T21:05:49.021Z,6.00
2019-01-03T21:08:19.967Z,6.00
2019-01-03T21:10:51.036Z,5.33
2019-01-03T21:13:22.036Z,5.57
2019-01-03T21:15:53.105Z,6.63
2019-01-03T21:18:24.049Z,6.93
2019-01-03T21:20:54.976Z,8.40
2019-01-03T21:23:25.937Z,8.23
2019-01-03T21:25:56.884Z,8.60
2019-01-03T21:28:27.841Z,10.70
2019-01-03T21:30:58.754Z,9.27
2019-01-03T21:33:29.755Z,9.43
2019-01-03T21:36:00.754Z,9.70
2019-01-03T21:38:31.875Z,7.33
2019-01-03T21:41:02.858Z,6.23
2019-01-03T21:43:33.897Z,6.73
2019-01-03T21:46:04.918Z,5.07
2019-01-03T21:48:35.855Z,5.30
2019-01-03T21:51:06.897Z,6.00
2019-01-03T21:53:37.880Z,6.03
2019-01-03T21:56:08.955Z,5.40
2019-01-03T21:58:39.950Z,4.90
2019-01-03T22:01:10.896Z,4.63
2019-01-03T22:03:41.916Z,4.60
2019-01-03T22:06:12.854Z,4.93
2019-01-03T22:08:44.972Z,4.60
2019-01-03T22:11:15.970Z,5.07
2019-01-03T22:13:47.002Z,5.10
2019-01-03T22:16:18.013Z,5.67
2019-01-03T22:18:49.006Z,5.27
2019-01-03T22:21:19.942Z,5.20
2019-01-03T22:23:50.940Z,5.37
2019-01-03T22:26:21.876Z,5.20
2019-01-03T22:28:52.914Z,5.23
2019-01-03T22:31:23.882Z,5.87
2019-01-03T22:33:55.230Z,5.53
2019-01-03T22:36:26.806Z,4.87
2019-01-03T22:38:57.857Z,5.53
2019-01-03T22:41:28.861Z,4.50
2019-01-03T22:44:00.854Z,5.33
2019-01-03T22:46:31.873Z,5.83
2019-01-03T22:49:02.815Z,5.80
2019-01-03T22:51:33.792Z,4.70
2019-01-03T22:54:04.737Z,5.97
2019-01-03T22:56:35.711Z,5.87
2019-01-03T22:59:06.665Z,4.97
2019-01-03T23:01:37.632Z,6.00
2019-01-03T23:04:08.709Z,5.03
2019-01-03T23:06:39.791Z,5.50
2019-01-03T23:09:10.766Z,5.60
2019-01-03T23:11:41.777Z,4.53
2019-01-03T23:14:12.733Z,5.00
2019-01-03T23:16:43.740Z,4.37
2019-01-03T23:19:14.724Z,4.60
2019-01-03T23:21:45.650Z,4.10
2019-01-03T23:24:16.604Z,3.80
2019-01-03T23:26:47.556Z,4.13
2019-01-03T23:29:18.534Z,4.10
2019-01-03T23:31:49.457Z,4.00
2019-01-03T23:34:20.417Z,3.80
2019-01-03T23:36:55.044Z,3.87
2019-01-03T23:39:25.983Z,4.03
2019-01-03T23:41:57.009Z,3.73
2019-01-03T23:44:33.690Z,3.60
2019-01-03T23:47:04.982Z,3.60
2019-01-03T23:49:36.073Z,4.33
2019-01-03T23:52:07.370Z,4.33
2019-01-03T23:54:45.353Z,4.43
2019-01-03T23:57:18.103Z,4.30
2019-01-03T23:59:49.586Z,4.40
